Time;durP1;ratioP1;P1;durP2;ratioP2;P2;SDS_P1;SDS_P2;PMS_P1;PMS_P2;Temp;Humidity;BMP_temperature;BMP_pressure;BME280_temperature;BME280_humidity;BME280_pressure;Samples;Min_cycle;Max_cycle;Signal;HPM_P1;HPM_P2
2023/01/30 00:01:35;;;;;;;48.55;30.83;;;;;;;3.47;100.00;101744.22;5029513;28;20045;-57
2023/01/30 00:04:00;;;;;;;49.28;30.45;;;;;;;3.58;100.00;101752.28;5029813;28;20144;-57
2023/01/30 00:06:26;;;;;;;48.00;27.77;;;;;;;3.74;100.00;101727.72;5018910;28;20536;-57
2023/01/30 00:08:52;;;;;;;49.80;31.45;;;;;;;3.59;100.00;101713.75;5025557;28;20100;-57
2023/01/30 00:11:18;;;;;;;51.47;29.85;;;;;;;3.68;100.00;101728.09;5031549;28;20083;-56
2023/01/30 00:13:44;;;;;;;52.88;29.67;;;;;;;3.63;100.00;101726.63;5027481;28;20021;-56
2023/01/30 00:16:10;;;;;;;45.70;29.83;;;;;;;3.69;100.00;101714.88;5028632;28;20053;-57
2023/01/30 00:18:37;;;;;;;42.90;26.88;;;;;;;3.82;100.00;101709.75;5022935;28;20022;-57
2023/01/30 00:21:05;;;;;;;45.72;29.92;;;;;;;3.70;100.00;101684.25;5021993;28;20771;-57
2023/01/30 00:23:31;;;;;;;47.33;30.40;;;;;;;3.69;100.00;101704.41;5029153;28;20124;-57
2023/01/30 00:25:57;;;;;;;40.33;24.85;;;;;;;3.87;100.00;101699.81;5021741;28;20029;-56
2023/01/30 00:28:23;;;;;;;51.03;30.65;;;;;;;3.71;100.00;101696.44;5025895;28;20033;-58
2023/01/30 00:30:54;;;;;;;44.42;28.42;;;;;;;3.85;100.00;101716.56;5019630;28;20026;-56
2023/01/30 00:33:20;;;;;;;47.03;27.98;;;;;;;3.77;100.00;101720.50;5022012;28;20028;-56
2023/01/30 00:35:48;;;;;;;42.00;24.05;;;;;;;3.87;100.00;101720.78;5022608;28;20037;-57
2023/01/30 00:38:14;;;;;;;45.40;28.25;;;;;;;3.85;100.00;101708.72;5017124;28;20038;-57
2023/01/30 00:40:40;;;;;;;46.83;30.08;;;;;;;3.99;100.00;101699.97;5026438;28;20079;-59
2023/01/30 00:48:37;;;;;;;45.00;30.45;;;;;;;3.97;100.00;101699.22;5021982;28;20053;-56
2023/01/30 00:51:02;;;;;;;45.70;29.25;;;;;;;4.04;100.00;101693.47;5029550;28;20053;-56
2023/01/30 00:53:27;;;;;;;49.08;30.60;;;;;;;3.95;100.00;101698.47;5028153;28;20064;-57
2023/01/30 00:55:54;;;;;;;48.53;30.45;;;;;;;4.00;100.00;101691.97;5026453;28;20021;-57
2023/01/30 00:58:21;;;;;;;45.58;27.05;;;;;;;4.01;100.00;101692.84;5022656;28;20029;-56
2023/01/30 01:00:46;;;;;;;44.55;30.02;;;;;;;4.03;100.00;101690.94;5019815;28;20500;-57
2023/01/30 01:03:12;;;;;;;48.60;31.40;;;;;;;4.06;100.00;101689.91;5028352;28;20120;-57
2023/01/30 01:05:37;;;;;;;49.25;30.73;;;;;;;4.04;100.00;101676.88;5019337;28;20048;-57
2023/01/30 01:08:03;;;;;;;48.92;29.88;;;;;;;3.98;100.00;101677.25;5027340;28;20045;-56
2023/01/30 01:10:28;;;;;;;44.88;27.55;;;;;;;4.10;100.00;101678.28;5023297;28;20034;-55
2023/01/30 01:12:53;;;;;;;45.00;27.95;;;;;;;4.09;100.00;101685.31;5028161;28;20096;-56
2023/01/30 01:15:20;;;;;;;44.65;28.73;;;;;;;4.08;100.00;101678.38;5017438;28;20472;-56
2023/01/30 01:17:46;;;;;;;44.83;28.38;;;;;;;4.12;100.00;101669.38;5026893;28;20502;-57
2023/01/30 01:20:12;;;;;;;49.50;29.42;;;;;;;4.13;100.00;101664.94;5024328;28;20034;-57
2023/01/30 01:22:38;;;;;;;47.08;30.45;;;;;;;4.10;100.00;101675.66;5033447;28;20577;-57
2023/01/30 01:25:04;;;;;;;39.58;24.17;;;;;;;4.24;100.00;101666.91;5029839;28;20485;-56
2023/01/30 01:27:29;;;;;;;40.13;27.30;;;;;;;4.18;100.00;101678.63;5020325;28;20037;-56
2023/01/30 01:29:55;;;;;;;46.67;30.48;;;;;;;4.17;100.00;101667.28;5026918;28;20031;-56
2023/01/30 01:32:21;;;;;;;47.42;31.13;;;;;;;4.17;100.00;101656.78;5028484;28;20518;-55
2023/01/30 01:34:46;;;;;;;45.33;29.33;;;;;;;4.17;100.00;101650.69;5029946;28;20056;-56
2023/01/30 01:37:12;;;;;;;45.65;28.95;;;;;;;4.21;100.00;101651.31;5019997;28;20068;-56
2023/01/30 01:42:24;;;;;;;42.03;27.90;;;;;;;4.46;100.00;101650.56;5030143;28;20162;-56
2023/01/30 01:45:07;;;;;;;48.15;29.50;;;;;;;4.37;100.00;101651.16;5033731;28;20044;-56
2023/01/30 01:47:34;;;;;;;46.00;27.85;;;;;;;4.46;100.00;101652.34;5025950;28;20045;-57
2023/01/30 01:50:00;;;;;;;44.40;29.27;;;;;;;4.46;100.00;101644.47;5031995;28;20053;-57
2023/01/30 01:52:25;;;;;;;43.25;28.27;;;;;;;4.33;100.00;101629.53;5028721;28;20539;-57
2023/01/30 01:54:59;;;;;;;45.70;29.35;;;;;;;4.40;100.00;101622.91;5026358;28;20045;-57
2023/01/30 01:57:31;;;;;;;44.35;27.58;;;;;;;4.36;100.00;101613.56;5029750;28;20092;-57
2023/01/30 02:00:10;;;;;;;41.10;26.90;;;;;;;4.51;100.00;101603.84;5027758;28;20410;-58
2023/01/30 02:02:36;;;;;;;45.08;27.75;;;;;;;4.52;100.00;101607.28;5031736;28;20545;-56
2023/01/30 02:05:05;;;;;;;40.05;27.33;;;;;;;4.48;100.00;101600.56;5032169;28;20035;-57
2023/01/30 02:07:49;;;;;;;45.55;27.88;;;;;;;4.76;100.00;101606.56;5025966;28;20076;-56
2023/01/30 02:10:19;;;;;;;41.28;28.60;;;;;;;4.48;100.00;101611.09;5032270;28;20127;-58
2023/01/30 02:12:45;;;;;;;43.45;27.85;;;;;;;4.48;100.00;101600.56;5031913;28;20100;-57
2023/01/30 02:15:11;;;;;;;43.72;27.23;;;;;;;4.48;100.00;101598.78;5031211;28;20072;-56
2023/01/30 02:17:36;;;;;;;40.33;26.65;;;;;;;4.52;100.00;101602.88;5030956;28;20036;-56
2023/01/30 02:20:22;;;;;;;43.03;29.15;;;;;;;4.47;100.00;101588.34;5029263;28;20061;-58
2023/01/30 02:23:08;;;;;;;41.67;28.95;;;;;;;4.51;100.00;101589.84;5029734;28;20053;-57
2023/01/30 02:25:49;;;;;;;43.10;28.23;;;;;;;4.58;100.00;101580.59;5017063;28;20042;-56
2023/01/30 02:28:35;;;;;;;42.53;28.00;;;;;;;4.61;100.00;101575.16;5026871;28;20242;-57
2023/01/30 02:31:12;;;;;;;41.33;27.67;;;;;;;4.64;100.00;101560.97;5022696;28;20052;-57
2023/01/30 02:34:02;;;;;;;40.97;29.08;;;;;;;4.54;100.00;101573.91;5028508;28;20029;-56
2023/01/30 02:36:40;;;;;;;41.85;28.38;;;;;;;4.54;100.00;101558.13;5026274;28;20046;-57
2023/01/30 02:39:31;;;;;;;43.47;28.95;;;;;;;4.63;100.00;101560.13;5030426;28;20030;-57
2023/01/30 02:42:07;;;;;;;48.58;27.27;;;;;;;4.68;100.00;101565.91;5016441;28;20091;-57
2023/01/30 02:44:50;;;;;;;41.03;28.75;;;;;;;4.70;100.00;101574.50;5028032;28;20034;-56
2023/01/30 02:47:35;;;;;;;41.97;28.58;;;;;;;4.74;100.00;101563.81;5029186;28;20136;-57
2023/01/30 02:50:14;;;;;;;40.75;28.67;;;;;;;4.64;100.00;101561.78;5030788;28;20034;-58
2023/01/30 02:52:41;;;;;;;42.38;29.58;;;;;;;4.65;100.00;101558.25;5026338;28;20030;-57
2023/01/30 02:55:19;;;;;;;47.70;29.50;;;;;;;4.66;100.00;101562.56;5018220;28;20061;-56
2023/01/30 02:57:44;;;;;;;44.92;29.40;;;;;;;4.68;100.00;101563.28;5025855;28;20473;-56
2023/01/30 03:00:10;;;;;;;43.72;29.52;;;;;;;4.66;100.00;101567.81;5028639;28;20043;-59
2023/01/30 03:02:49;;;;;;;41.90;27.40;;;;;;;4.78;100.00;101565.28;5023518;28;20038;-56
2023/01/30 03:05:36;;;;;;;44.83;31.05;;;;;;;4.67;100.00;101551.09;5026918;28;20069;-56
2023/01/30 03:08:14;;;;;;;44.53;29.20;;;;;;;4.71;100.00;101534.19;5031617;28;20017;-57
2023/01/30 03:10:46;;;;;;;49.00;29.67;;;;;;;4.70;100.00;101542.97;5023487;28;20028;-56
2023/01/30 03:13:30;;;;;;;49.50;30.27;;;;;;;4.84;100.00;101549.09;5025689;28;20041;-57
2023/01/30 03:16:04;;;;;;;44.70;29.63;;;;;;;4.73;100.00;101544.56;5019567;28;20109;-57
2023/01/30 03:18:29;;;;;;;41.33;28.90;;;;;;;4.74;100.00;101532.28;5027452;28;20465;-56
2023/01/30 03:20:55;;;;;;;44.50;28.58;;;;;;;4.70;100.00;101532.47;5029617;28;20040;-56
2023/01/30 03:23:20;;;;;;;44.13;30.83;;;;;;;4.71;100.00;101538.59;5027280;28;20044;-57
2023/01/30 03:25:47;;;;;;;46.85;31.10;;;;;;;4.69;100.00;101530.81;5023544;28;20037;-57
2023/01/30 03:28:17;;;;;;;46.67;31.55;;;;;;;4.68;100.00;101539.63;5014505;28;20628;-57
2023/01/30 03:30:42;;;;;;;48.92;31.45;;;;;;;4.71;100.00;101536.81;5028711;28;20116;-55
2023/01/30 03:33:08;;;;;;;49.35;31.88;;;;;;;4.64;100.00;101538.16;5024252;28;20112;-56
2023/01/30 03:35:33;;;;;;;49.42;30.05;;;;;;;4.67;100.00;101547.59;5027773;28;20048;-57
2023/01/30 03:37:59;;;;;;;46.40;31.33;;;;;;;4.68;100.00;101533.53;5028909;28;20029;-58
2023/01/30 03:40:24;;;;;;;48.95;31.50;;;;;;;4.65;100.00;101523.25;5030885;28;20107;-56
2023/01/30 03:42:49;;;;;;;49.38;31.40;;;;;;;4.64;100.00;101506.63;5026330;28;20038;-58
2023/01/30 03:45:15;;;;;;;47.35;31.52;;;;;;;4.63;100.00;101506.75;5023927;28;20044;-57
2023/01/30 03:47:40;;;;;;;43.67;28.42;;;;;;;4.71;100.00;101513.16;5030923;28;20121;-56
2023/01/30 03:50:06;;;;;;;45.40;26.83;;;;;;;4.74;100.00;101522.59;5028186;28;20033;-56
2023/01/30 03:52:34;;;;;;;44.72;31.30;;;;;;;4.74;100.00;101519.97;5029812;28;20029;-56
2023/01/30 03:54:59;;;;;;;45.95;30.30;;;;;;;4.73;100.00;101520.09;5029947;28;20449;-56
2023/01/30 03:57:24;;;;;;;48.13;30.60;;;;;;;4.80;100.00;101516.91;5031447;28;20052;-56
2023/01/30 03:59:50;;;;;;;49.08;30.40;;;;;;;4.80;100.00;101518.72;5029476;28;20034;-56
2023/01/30 04:02:19;;;;;;;47.83;30.40;;;;;;;4.71;100.00;101515.78;5025091;28;20044;-56
2023/01/30 04:04:44;;;;;;;43.63;28.95;;;;;;;4.76;100.00;101511.97;5028857;28;20030;-58
2023/01/30 04:07:10;;;;;;;47.97;30.20;;;;;;;4.74;100.00;101522.59;5028157;28;20083;-57
2023/01/30 04:09:35;;;;;;;45.78;29.70;;;;;;;4.75;100.00;101519.03;5029538;28;20040;-56
2023/01/30 04:12:00;;;;;;;48.90;30.25;;;;;;;4.77;100.00;101524.16;5026819;28;20527;-59
2023/01/30 04:14:25;;;;;;;42.78;29.52;;;;;;;4.76;100.00;101525.97;5028926;28;20033;-57
2023/01/30 04:16:51;;;;;;;42.28;27.15;;;;;;;4.92;100.00;101525.75;5028916;28;20025;-57
2023/01/30 04:19:16;;;;;;;48.88;30.33;;;;;;;4.81;100.00;101523.00;5025081;28;20041;-56
2023/01/30 04:21:41;;;;;;;45.85;28.90;;;;;;;4.82;100.00;101520.28;5029037;28;20025;-57
2023/01/30 04:24:07;;;;;;;43.80;29.23;;;;;;;4.89;100.00;101514.59;5028423;28;20037;-57
2023/01/30 04:26:32;;;;;;;45.90;29.63;;;;;;;4.85;100.00;101511.34;5025725;28;20061;-57
2023/01/30 04:28:57;;;;;;;45.65;28.20;;;;;;;4.93;100.00;101511.66;5025792;28;20041;-57
2023/01/30 04:31:23;;;;;;;42.92;26.08;;;;;;;4.90;100.00;101506.63;5026691;28;20028;-57
2023/01/30 04:33:48;;;;;;;42.40;24.90;;;;;;;4.91;100.00;101503.03;5028803;28;20389;-57
2023/01/30 04:36:13;;;;;;;42.55;26.25;;;;;;;4.94;100.00;101505.44;5016733;28;20045;-58
2023/01/30 04:38:39;;;;;;;36.08;20.70;;;;;;;5.07;100.00;101501.94;5020466;28;20056;-56
2023/01/30 04:41:04;;;;;;;33.22;22.70;;;;;;;5.08;100.00;101506.28;5029173;28;20033;-57
2023/01/30 04:43:30;;;;;;;38.00;21.23;;;;;;;5.10;100.00;101501.72;5027148;28;20037;-57
2023/01/30 04:45:56;;;;;;;34.05;20.38;;;;;;;5.29;100.00;101506.53;5027778;28;20420;-56
2023/01/30 04:48:24;;;;;;;31.80;20.17;;;;;;;5.32;100.00;101503.66;5022538;28;20041;-57
2023/01/30 04:50:51;;;;;;;29.35;16.50;;;;;;;5.35;100.00;101510.50;5020652;28;20417;-56
2023/01/30 04:53:18;;;;;;;36.15;20.10;;;;;;;5.34;100.00;101525.41;5028189;28;20025;-56
2023/01/30 04:55:45;;;;;;;32.50;19.52;;;;;;;5.29;100.00;101510.94;5025612;28;20061;-56
2023/01/30 04:58:11;;;;;;;34.80;18.70;;;;;;;5.32;100.00;101510.72;5024088;28;20030;-56
2023/01/30 05:00:36;;;;;;;28.08;16.70;;;;;;;5.37;100.00;101508.59;5020164;28;20038;-56
2023/01/30 05:03:01;;;;;;;28.20;15.93;;;;;;;5.41;100.00;101503.94;5024244;28;20500;-57
2023/01/30 05:05:27;;;;;;;29.65;15.93;;;;;;;5.41;100.00;101499.53;5029037;28;20041;-56
2023/01/30 05:07:53;;;;;;;28.25;14.95;;;;;;;5.37;100.00;101519.09;5033167;28;20041;-56
2023/01/30 05:10:19;;;;;;;32.38;13.65;;;;;;;5.54;100.00;101522.31;5026753;28;20030;-56
2023/01/30 05:12:44;;;;;;;32.85;14.15;;;;;;;5.52;100.00;101518.00;5033300;28;20095;-57
2023/01/30 05:15:11;;;;;;;24.60;13.43;;;;;;;5.54;100.00;101531.06;5032733;28;20053;-56
2023/01/30 05:17:36;;;;;;;26.77;13.00;;;;;;;5.56;100.00;101523.03;5025296;28;20029;-57
2023/01/30 05:20:05;;;;;;;24.70;13.80;;;;;;;5.54;100.00;101524.94;5031776;28;20026;-57
2023/01/30 05:22:31;;;;;;;23.92;12.80;;;;;;;5.63;100.00;101524.28;5023437;28;20025;-56
2023/01/30 05:24:56;;;;;;;24.85;12.43;;;;;;;5.60;100.00;101525.34;5029985;28;20522;-57
2023/01/30 05:27:21;;;;;;;27.58;12.75;;;;;;;5.58;100.00;101511.44;5028651;28;20032;-56
2023/01/30 05:29:46;;;;;;;23.52;11.80;;;;;;;5.65;100.00;101514.47;5022492;28;20030;-57
2023/01/30 05:32:14;;;;;;;24.00;9.57;;;;;;;5.78;100.00;101512.63;5027539;28;20038;-56
2023/01/30 05:34:39;;;;;;;24.58;10.15;;;;;;;5.72;100.00;101510.44;5023698;28;20094;-56
2023/01/30 05:37:05;;;;;;;25.05;10.43;;;;;;;5.69;100.00;101508.06;5025525;28;20465;-58
2023/01/30 05:39:30;;;;;;;23.55;10.32;;;;;;;5.66;100.00;101505.63;5021477;28;20416;-56
2023/01/30 05:41:55;;;;;;;20.65;8.98;;;;;;;5.75;100.00;101517.28;5031839;28;20036;-56
2023/01/30 05:44:21;;;;;;;25.05;8.93;;;;;;;5.78;100.00;101507.34;5033184;28;20056;-57
2023/01/30 05:46:46;;;;;;;16.30;7.07;;;;;;;5.74;100.00;101511.19;5027248;28;20030;-56
2023/01/30 05:49:11;;;;;;;22.90;8.18;;;;;;;5.76;100.00;101509.28;5029285;28;20033;-56
2023/01/30 05:51:36;;;;;;;24.63;8.35;;;;;;;5.77;100.00;101510.09;5037141;28;20405;-55
2023/01/30 05:54:02;;;;;;;17.77;8.60;;;;;;;5.73;100.00;101504.22;5031527;28;20033;-57
2023/01/30 05:56:27;;;;;;;22.02;8.98;;;;;;;5.74;100.00;101508.56;5026929;28;20041;-56
2023/01/30 05:58:54;;;;;;;22.58;8.23;;;;;;;5.73;100.00;101517.38;5024854;28;20041;-56
2023/01/30 06:01:20;;;;;;;21.17;8.40;;;;;;;5.69;100.00;101522.97;5021500;28;20455;-55
2023/01/30 06:03:46;;;;;;;20.80;8.40;;;;;;;5.78;100.00;101527.59;5025414;28;20029;-56
2023/01/30 06:06:12;;;;;;;19.60;7.15;;;;;;;5.83;100.00;101545.66;5024694;28;20025;-57
2023/01/30 06:08:37;;;;;;;24.42;7.88;;;;;;;5.75;100.00;101528.66;5030421;28;20187;-55
2023/01/30 06:11:11;;;;;;;21.55;7.50;;;;;;;5.84;100.00;101529.75;5022359;28;20045;-58
2023/01/30 06:13:37;;;;;;;18.77;6.65;;;;;;;5.82;100.00;101533.47;5022392;28;20033;-56
2023/01/30 06:16:03;;;;;;;23.25;7.15;;;;;;;5.83;100.00;101535.13;5018735;28;20038;-57
2023/01/30 06:18:28;;;;;;;20.70;6.88;;;;;;;5.81;100.00;101523.91;5024136;28;20033;-55
2023/01/30 06:20:54;;;;;;;16.95;5.82;;;;;;;6.02;100.00;101532.00;5023054;28;20042;-56
2023/01/30 06:23:22;;;;;;;20.77;5.10;;;;;;;6.00;100.00;101547.03;5029128;28;20037;-57
2023/01/30 06:25:48;;;;;;;11.68;4.75;;;;;;;6.07;100.00;101545.66;5031472;28;20056;-57
2023/01/30 06:28:15;;;;;;;13.93;4.68;;;;;;;6.19;100.00;101551.81;5026325;28;20030;-57
2023/01/30 06:30:42;;;;;;;18.85;5.72;;;;;;;6.01;100.00;101559.25;5020743;28;20029;-55
2023/01/30 06:33:07;;;;;;;15.73;4.45;;;;;;;6.13;100.00;101560.19;5019191;28;20033;-57
2023/01/30 06:35:33;;;;;;;14.60;4.85;;;;;;;6.05;100.00;101573.91;5019643;28;20092;-57
2023/01/30 06:38:01;;;;;;;17.88;4.28;;;;;;;6.08;100.00;101586.00;5020187;28;20036;-57
2023/01/30 06:40:26;;;;;;;19.23;4.75;;;;;;;6.02;100.00;101582.00;5018314;28;20060;-56
2023/01/30 06:42:51;;;;;;;10.57;3.65;;;;;;;5.96;100.00;101567.50;5019259;28;20056;-59
2023/01/30 06:45:18;;;;;;;19.13;3.95;;;;;;;5.96;99.82;101562.22;5018423;28;20123;-58
2023/01/30 06:47:49;;;;;;;14.52;3.75;;;;;;;5.88;99.00;101564.59;5021196;28;20053;-56
2023/01/30 06:50:16;;;;;;;20.63;4.85;;;;;;;5.81;100.00;101589.69;5019458;28;20084;-56
2023/01/30 06:52:43;;;;;;;14.88;3.83;;;;;;;5.74;99.22;101584.88;5017374;28;20032;-56
2023/01/30 06:55:09;;;;;;;11.05;3.90;;;;;;;5.75;99.09;101591.81;5017904;28;20124;-57
2023/01/30 06:57:34;;;;;;;15.00;3.97;;;;;;;5.75;97.78;101591.81;5017593;28;20026;-57
2023/01/30 07:00:00;;;;;;;14.88;3.92;;;;;;;5.69;97.19;101572.97;5016982;28;20084;-60
2023/01/30 07:02:29;;;;;;;16.83;4.10;;;;;;;5.58;97.88;101557.97;5016628;28;20041;-57
2023/01/30 07:04:54;;;;;;;16.55;3.70;;;;;;;5.55;96.32;101552.94;5019232;28;20033;-56
2023/01/30 07:07:19;;;;;;;19.38;4.50;;;;;;;5.45;97.13;101553.59;5015560;28;20022;-56
2023/01/30 07:09:45;;;;;;;20.58;4.18;;;;;;;5.40;97.07;101560.97;5018561;28;20420;-60
2023/01/30 07:12:10;;;;;;;20.85;3.90;;;;;;;5.36;96.18;101559.50;5018273;28;20381;-56
2023/01/30 07:14:36;;;;;;;14.35;3.25;;;;;;;5.35;96.78;101578.88;5018890;28;20067;-56
2023/01/30 07:17:01;;;;;;;20.33;3.78;;;;;;;5.38;95.65;101578.69;5017873;28;20076;-56
2023/01/30 07:19:26;;;;;;;22.58;4.18;;;;;;;5.21;96.53;101577.22;5016547;28;20695;-56
2023/01/30 07:21:52;;;;;;;14.18;3.70;;;;;;;5.22;96.33;101578.88;5019828;28;20040;-58
2023/01/30 07:24:17;;;;;;;9.95;2.42;;;;;;;5.31;95.11;101577.41;5017408;28;20038;-58
2023/01/30 07:26:42;;;;;;;16.80;3.53;;;;;;;5.17;95.57;101581.03;5017615;28;20052;-57
2023/01/30 07:29:08;;;;;;;18.63;3.70;;;;;;;5.18;95.72;101583.53;5016701;28;20080;-58
2023/01/30 07:31:33;;;;;;;19.42;3.63;;;;;;;5.02;96.47;101588.19;5017631;28;20037;-56
2023/01/30 07:33:58;;;;;;;21.33;3.92;;;;;;;5.03;96.48;101592.50;5018562;28;20090;-57
2023/01/30 07:36:24;;;;;;;18.63;3.70;;;;;;;4.93;96.95;101598.38;5017291;28;20044;-57
2023/01/30 07:38:49;;;;;;;17.90;3.72;;;;;;;4.89;96.71;101603.97;5020911;28;20079;-58
2023/01/30 07:41:14;;;;;;;16.15;3.45;;;;;;;4.80;97.99;101603.63;5021110;28;20422;-56
2023/01/30 07:43:39;;;;;;;16.58;3.80;;;;;;;4.82;98.30;101608.78;5022009;28;20022;-56
2023/01/30 07:46:05;;;;;;;19.15;3.80;;;;;;;4.88;97.53;101613.63;5020661;28;20033;-57
2023/01/30 07:48:30;;;;;;;20.95;3.50;;;;;;;4.79;97.24;101603.75;5018025;28;20069;-56
2023/01/30 07:50:56;;;;;;;21.85;4.13;;;;;;;4.77;97.47;101613.50;5020175;28;20029;-57
2023/01/30 07:53:21;;;;;;;20.50;4.10;;;;;;;4.80;97.51;101615.94;5021042;28;20033;-58
2023/01/30 07:55:47;;;;;;;21.05;3.88;;;;;;;4.71;97.81;101607.75;5018805;28;20042;-57
2023/01/30 07:58:14;;;;;;;17.80;3.78;;;;;;;4.74;96.70;101606.66;5017713;28;20043;-56
2023/01/30 08:00:39;;;;;;;19.52;3.88;;;;;;;4.82;95.92;101608.78;5019903;28;20524;-56
2023/01/30 08:03:04;;;;;;;24.30;4.20;;;;;;;4.66;97.74;101617.72;5020400;28;20089;-56
2023/01/30 08:05:30;;;;;;;15.68;3.72;;;;;;;4.66;97.11;101611.63;5019301;28;20474;-57
2023/01/30 08:07:56;;;;;;;15.15;3.20;;;;;;;4.67;97.34;101614.16;5020225;28;20113;-57
2023/01/30 08:10:21;;;;;;;16.73;3.50;;;;;;;4.80;95.00;101610.69;5018071;28;20021;-58
2023/01/30 08:12:50;;;;;;;24.80;3.85;;;;;;;4.82;94.85;101624.56;5019514;28;20953;-57
2023/01/30 08:15:15;;;;;;;19.52;3.65;;;;;;;4.75;95.31;101631.19;5021293;28;20550;-57
2023/01/30 08:17:40;;;;;;;23.30;4.15;;;;;;;4.83;93.85;101637.59;5020492;28;20029;-57
2023/01/30 08:20:06;;;;;;;24.00;3.60;;;;;;;4.79;94.12;101630.84;5020433;28;20056;-56
2023/01/30 08:22:32;;;;;;;23.95;3.38;;;;;;;4.84;94.01;101631.38;5019228;28;20036;-56
2023/01/30 08:24:57;;;;;;;22.52;3.90;;;;;;;4.87;93.13;101640.03;5023207;28;20030;-56
2023/01/30 08:27:22;;;;;;;19.58;3.72;;;;;;;4.90;92.99;101645.91;5019366;28;20036;-57
2023/01/30 08:29:48;;;;;;;20.02;3.20;;;;;;;4.98;91.77;101653.25;5021137;28;20057;-58
2023/01/30 08:32:13;;;;;;;19.20;3.30;;;;;;;5.06;90.27;101652.75;5019269;28;20026;-57
2023/01/30 08:34:38;;;;;;;25.00;3.97;;;;;;;4.97;92.36;101649.81;5021172;28;20388;-57
2023/01/30 08:37:04;;;;;;;23.02;3.70;;;;;;;5.00;92.13;101640.00;5019261;28;20112;-57
2023/01/30 08:39:29;;;;;;;24.67;4.40;;;;;;;4.94;92.50;101638.66;5019013;28;20564;-57
2023/01/30 08:41:54;;;;;;;22.02;3.90;;;;;;;5.02;91.84;101651.28;5017742;28;20443;-57
2023/01/30 08:44:20;;;;;;;21.15;4.18;;;;;;;5.03;90.55;101658.22;5020644;28;20029;-57
2023/01/30 08:46:45;;;;;;;24.85;3.60;;;;;;;5.14;90.14;101660.97;5018079;28;20037;-57
2023/01/30 08:49:11;;;;;;;21.55;3.65;;;;;;;5.14;90.53;101655.72;5018178;28;20029;-57
2023/01/30 08:51:36;;;;;;;24.67;3.90;;;;;;;5.24;89.00;101667.25;5020075;28;20038;-56
2023/01/30 08:54:02;;;;;;;29.38;4.20;;;;;;;5.21;90.00;101658.72;5018654;28;20577;-56
2023/01/30 08:56:27;;;;;;;18.02;3.88;;;;;;;5.37;88.43;101655.88;5020977;28;20084;-59
2023/01/30 08:58:52;;;;;;;16.33;3.42;;;;;;;5.34;89.24;101672.72;5019746;28;20026;-57
2023/01/30 09:01:18;;;;;;;14.48;3.20;;;;;;;5.52;86.79;101665.34;5020113;28;20358;-57
2023/01/30 09:03:43;;;;;;;17.90;3.30;;;;;;;5.35;88.93;101668.31;5020001;28;20025;-56
2023/01/30 09:06:08;;;;;;;21.50;3.67;;;;;;;5.42;88.62;101680.06;5017609;28;20100;-57
2023/01/30 09:08:34;;;;;;;19.80;3.45;;;;;;;5.47;88.45;101683.22;5019042;28;20029;-58
2023/01/30 09:11:02;;;;;;;20.20;3.55;;;;;;;5.59;87.82;101691.22;5020977;28;20088;-57
2023/01/30 09:13:28;;;;;;;24.40;4.15;;;;;;;5.64;87.62;101699.63;5019540;28;20087;-57
2023/01/30 09:15:54;;;;;;;16.40;3.47;;;;;;;5.62;86.95;101696.25;5018552;28;20026;-57
2023/01/30 09:18:19;;;;;;;14.50;2.90;;;;;;;5.78;85.27;101694.22;5018362;28;20593;-59
2023/01/30 09:20:44;;;;;;;21.30;3.85;;;;;;;5.70;86.40;101686.03;5020188;28;20072;-57
2023/01/30 09:23:10;;;;;;;21.50;4.05;;;;;;;5.81;85.48;101698.44;5018822;28;20080;-62
2023/01/30 09:25:35;;;;;;;14.98;2.97;;;;;;;5.78;86.04;101704.75;5019550;28;20038;-61
2023/01/30 09:28:00;;;;;;;16.92;3.15;;;;;;;5.87;85.52;101705.06;5019954;28;20108;-61
2023/01/30 09:30:26;;;;;;;20.38;3.80;;;;;;;5.89;86.52;101703.16;5018037;28;20038;-62
2023/01/30 09:32:51;;;;;;;19.40;3.70;;;;;;;5.99;83.83;101701.56;5019208;28;20045;-61
2023/01/30 09:35:16;;;;;;;15.80;2.78;;;;;;;6.06;83.86;101709.88;5020386;28;20041;-62
2023/01/30 09:37:52;;;;;;;16.80;3.33;;;;;;;6.19;83.40;101709.84;5017510;28;20069;-62
2023/01/30 09:40:23;;;;;;;22.92;3.17;;;;;;;6.18;82.91;101714.25;5020664;28;20116;-60
2023/01/30 09:43:30;;;;;;;22.10;3.35;;;;;;;6.31;82.49;101724.75;5024383;28;20049;-61
2023/01/30 09:46:03;;;;;;;20.35;3.33;;;;;;;6.27;83.15;101722.47;5003430;28;20049;-61
2023/01/30 09:48:35;;;;;;;14.15;2.75;;;;;;;6.25;82.55;101709.41;5019410;28;20053;-61
2023/01/30 09:51:08;;;;;;;14.48;2.70;;;;;;;6.25;82.01;101721.72;5023054;28;20033;-61
2023/01/30 09:53:52;;;;;;;20.80;3.58;;;;;;;6.23;81.99;101716.56;5021893;28;20029;-60
2023/01/30 09:56:17;;;;;;;18.73;3.28;;;;;;;6.25;81.04;101722.56;5022335;28;20180;-62
2023/01/30 09:59:00;;;;;;;13.63;2.83;;;;;;;6.22;83.09;101735.94;5023689;28;20072;-61
2023/01/30 10:01:31;;;;;;;20.23;3.63;;;;;;;6.22;81.68;101730.69;5020444;28;20076;-62
2023/01/30 10:04:05;;;;;;;19.35;3.08;;;;;;;6.24;82.36;101734.06;5023019;28;21667;-60
2023/01/30 10:06:37;;;;;;;18.10;2.55;;;;;;;6.35;81.78;101730.63;5021888;28;20052;-61
2023/01/30 10:09:52;;;;;;;15.65;2.72;;;;;;;6.55;80.23;101739.72;5019861;28;20049;-60
2023/01/30 10:12:26;;;;;;;20.30;3.70;;;;;;;6.37;80.85;101733.16;5016787;28;20041;-59
2023/01/30 10:15:25;;;;;;;10.95;3.10;;;;;;;6.57;80.59;101739.63;5022004;28;20033;-57
2023/01/30 10:18:21;;;;;;;15.27;3.58;;;;;;;6.55;79.95;101744.13;5008069;28;20054;-57
2023/01/30 10:21:16;;;;;;;17.00;3.35;;;;;;;6.68;79.49;101752.00;5020991;28;20750;-56
2023/01/30 10:24:16;;;;;;;16.52;3.13;;;;;;;6.57;79.65;101756.25;5021528;28;20485;-57
2023/01/30 10:26:42;;;;;;;14.27;2.38;;;;;;;6.54;80.20;101756.50;5020098;28;20473;-57
2023/01/30 10:29:19;;;;;;;12.10;2.70;;;;;;;6.59;78.60;101758.78;5020753;28;20041;-59
2023/01/30 10:31:57;;;;;;;11.38;2.50;;;;;;;6.71;79.17;101749.16;5015212;28;20124;-58
2023/01/30 10:34:26;;;;;;;14.73;3.17;;;;;;;6.64;78.41;101755.81;5020916;28;20121;-57
2023/01/30 10:36:58;;;;;;;10.90;2.72;;;;;;;6.63;78.51;101765.53;5020732;28;20096;-59
2023/01/30 10:39:36;;;;;;;14.82;2.55;;;;;;;6.64;78.77;101767.19;5019201;28;20033;-57
2023/01/30 10:42:13;;;;;;;16.63;2.63;;;;;;;6.69;78.07;101761.59;5021593;28;20524;-57
2023/01/30 10:44:41;;;;;;;12.32;2.67;;;;;;;6.64;76.63;101759.28;5020461;28;20040;-57
2023/01/30 10:47:32;;;;;;;10.52;2.35;;;;;;;6.63;77.29;101772.56;5019899;28;20056;-57
2023/01/30 10:50:17;;;;;;;8.82;2.45;;;;;;;6.72;78.14;101774.56;5018101;28;20041;-59
2023/01/30 10:53:03;;;;;;;12.82;2.63;;;;;;;6.65;77.85;101778.59;5020301;28;20055;-57
2023/01/30 10:55:39;;;;;;;20.20;2.83;;;;;;;6.63;77.23;101785.75;5020860;28;20040;-57
2023/01/30 10:58:30;;;;;;;21.13;3.88;;;;;;;6.40;79.24;101783.00;5020784;28;20044;-57
2023/01/30 11:01:04;;;;;;;11.77;2.63;;;;;;;6.58;78.04;101770.28;5021501;28;20030;-56
2023/01/30 11:03:54;;;;;;;22.98;3.65;;;;;;;6.54;78.91;101782.84;5015932;28;20052;-57
2023/01/30 11:06:24;;;;;;;16.42;3.00;;;;;;;6.49;77.94;101778.84;5018607;28;20511;-57
2023/01/30 11:08:52;;;;;;;15.07;3.08;;;;;;;6.46;77.53;101780.75;5019301;28;20057;-57
2023/01/30 11:11:28;;;;;;;12.75;2.80;;;;;;;6.61;76.48;101782.41;5020048;28;20037;-56
2023/01/30 11:14:12;;;;;;;14.00;2.78;;;;;;;6.60;76.44;101792.09;5021161;28;20049;-56
2023/01/30 11:16:50;;;;;;;15.07;2.20;;;;;;;6.59;76.50;101779.88;5022951;28;20064;-57
2023/01/30 11:19:19;;;;;;;16.40;2.63;;;;;;;6.52;75.78;101790.00;5019451;28;20038;-57
2023/01/30 11:21:50;;;;;;;11.63;2.50;;;;;;;6.58;75.29;101784.28;5020335;28;20868;-57
2023/01/30 11:24:28;;;;;;;14.68;3.08;;;;;;;6.49;76.72;101784.97;5018812;28;20025;-56
2023/01/30 11:27:01;;;;;;;15.20;3.08;;;;;;;6.44;75.94;101792.38;5019464;28;20087;-56
2023/01/30 11:29:29;;;;;;;21.92;3.08;;;;;;;6.53;76.18;101773.25;5018358;28;20029;-61
2023/01/30 11:31:55;;;;;;;12.60;2.80;;;;;;;6.56;75.77;101775.66;5019837;28;20416;-60
2023/01/30 11:34:22;;;;;;;11.65;2.50;;;;;;;6.63;75.39;101785.75;5019854;28;20724;-56